KOUN/OUN METAR and TAF weather

Enter ICAO airport designator
Station Type Date Time Source
KOUN METAR 2022/06/25 21:47 UTC NOAA

KOUN 252147Z 16014KT 10SM CLR 38/17 A2991


Station Type Date Time Source
KOUN Decoded METAR 2022/06/25 21:47 UTC NOAA

Norman / Max Westheimer, OK, United States (KOUN) 35-13N 097-27W 357M
Jun 25, 2022 - 05:47 PM EDT / 2022.06.25 2147 UTC
Wind: from the SSE (160 degrees) at 16 MPH (14 KT):0
Visibility: 10 mile(s):0
Sky conditions: clear
Temperature: 100 F (38 C)
Heat index: 101.7 F (38.7 C):1
Dew Point: 62 F (17 C)
Relative Humidity: 29%
Pressure (altimeter): 29.91 in. Hg (1012 hPa)
ob: KOUN 252147Z 16014KT 10SM CLR 38/17 A2991
cycle: 22

Station Type Date Time Source
KOUN TAF 2022/06/25 18:22 UTC NOAA

TAF KOUN 251720Z 2518/2618 18014G21KT P6SM SKC
FM252200 14011KT P6SM FEW100
FM260200 04012KT P6SM FEW100
FM260800 01017G25KT P6SM BKN025

Example: see airport list